Historyczne dane pomiarowe

Dodano dane terminowe – wersja testowa.

Dane z okresu 1951-2019

Wersja bazy: 1.34 [2019-03-16, lista zmian], aktualizacja planowana na 2019-04-15

Dane meteo z obszaru Polski uzyskane na podstawie danych udostępnionych przez Instytut Meteorologii i Gospodarki Wodnej – Państwowy Instytut Badawczy.

 

Wybierz Datę:    

       

TemperaturaWilgotnośćZachmurzenieWiatrCiśnienieWidzialnośćZjawiska
 Data    tng td wb rh cc ccl cl cm ch dir g1 g2 mslp ppp      
1994-07-11 00:00:00 13.8--- 13.1 13.496wxwxwxwx0wx--1025.4 984.4 0.8---wxw1
1994-07-11 01:00:00 13.2--- 12.5 12.896wxwx0wx--1025.7 984.6----wx
1994-07-11 02:00:00 12.8--- 12.1 12.496wxwxwx0wx--1025.7 984.5----wx
1994-07-11 03:00:00 12.4--- 12.1 12.298wxwxwx0wx--1025.7 984.5----wx
1994-07-11 04:00:00 12.2--- 11.9 12.098wxwx0wx--1026.0 984.7----wxw1
1994-07-11 05:00:00 12.6--- 12.3 12.498wxwx0wx--1026.1 984.9----wxw1
1994-07-11 06:00:00 15.2--- 14.7 14.997wxwxwx0wx--1026.0 985.1 0.0---wx
1994-07-11 07:00:00 17.7--- 14.4 15.781wxwxwx0wx--1025.7 985.2----wx
1994-07-11 08:00:00 20.2--- 14.4 16.669wxwxwx0wx--1025.3 985.1----wx
1994-07-11 09:00:00 22.7--- 14.8 17.761wxwxwx0wx--1024.8 985.0----wx
1994-07-11 10:00:00 23.9--- 14.0 17.754wxwxwx2wx--1024.2 984.6----wx
1994-07-11 11:00:00 24.7--- 12.4 17.246wxwxwx2wx--1023.9 984.4----wx
1994-07-11 12:00:00 24.9--- 12.9 17.547wxwxwx3wx--1023.5 984.0 0.0---wx
1994-07-11 13:00:00 25.7--- 13.1 17.946wxwxwx3wx--1023.3 983.9----wx
1994-07-11 14:00:00 25.7--- 11.0 16.940wxwxwx2wx--1022.8 983.5----wx
1994-07-11 15:00:00 26.1--- 12.2 17.642wxwxwx2wx--1022.6 983.3----wx
1994-07-11 16:00:00 25.5--- 9.9 16.337wxwxwx2wx--1022.4 983.1----wx
1994-07-11 17:00:00 25.4--- 10.0 16.338wxwxwx2wx--1022.4 983.0----wx
1994-07-11 18:00:00 23.9--- 10.1 15.842wxwxwx1wx--1022.8 983.2 0.0---wx
1994-07-11 19:00:00 20.5--- 12.5 15.760wxwxwx0wx--1023.2 983.2----wx
1994-07-11 20:00:00 17.6--- 12.7 14.773wxwxwx0wx--1023.7 983.3----wx
1994-07-11 21:00:00 17.2--- 12.7 14.575wxwxwx0wx--1024.0 983.5----wx
1994-07-11 22:00:00 15.8--- 12.9 14.183wxwxwx0wx--1024.3 983.6----wx
1994-07-11 23:00:00 14.8--- 12.6 13.587wxwx0wx--1024.5 983.6----wx

 

Źródłem pochodzenia danych jest Instytut Meteorologii i Gospodarki Wodnej – Państwowy Instytut Badawczy. Dane Instytutu Meteorologii i Gospodarki Wodnej – Państwowego Instytutu Badawczego zostały przetworzone.

Dane źródłowe można odnaleźć na stronie https://dane.imgw.pl